Meteo Giornale » Osservazioni meteo Austria » Vienna-Schwechat

ore: 04:50 - Osservazioni Meteo Vienna-Schwechat
Lat. 48° 7' N Lon. 16° 34' E Alt. 183 metri s.l.m.

nuvoloso_temporali Europe/Vienna

20 °C

Temporale con Pioggia Debole

Temp. 24 Ore

18 °C

35 °C

Nord

24 Km/h

Dew point 16 °C

Umidità 77 %

Visibilità  10 Km

Il sole sorge alle ore 04:52

Il sole tramonta alle ore 20:59

Data e Ora Cielo e Fenomeni T °C DP °C Um. % Pres. hPa Vis. km Vento km/h
Oggi h: 04:50 nuvoloso_temporali Temporale con Pioggia Debole 20 16 77 1014 10 N 24
Oggi h: 04:20 nuvoloso_temporali Temporale nelle Vicinanze 25 15 53 1012 10 NO 31.5
Oggi h: 03:50 molto_nuvoloso Molto Nuvoloso 20 16 77 1010 10 N 9.3
Oggi h: 03:20 molto_nuvoloso Molto Nuvoloso 23 16 64 1009 10 O/SO 13
Oggi h: 02:50 sereno Sereno 22 17 73 1010 10 N 5.5
Oggi h: 02:20 sereno Sereno 21 17 77 1010 10 S 11.1
Oggi h: 01:50 sereno Sereno 21 17 77 1010 10 S/SE 11.1
Oggi h: 01:20 sereno Sereno 22 17 73 1011 10 S 11.1
Oggi h: 00:50 sereno Sereno 24 17 64 1011 10 S 11.1
Oggi h: 00:20 sereno Sereno 26 17 57 1011 10 SO 13
Ieri h: 23:50 sereno Sereno 26 17 57 1011 10 S/SO 18.5
Ieri h: 23:20 sereno Sereno 25 16 57 1011 10 S 18.5
Ieri h: 22:50 sereno Sereno 23 17 68 1012 10 S/SE 14.8
Ieri h: 22:20 sereno Sereno 27 16 50 1012 10 S/SO 11.1
Ieri h: 21:20 sereno Sereno 25 17 61 1012 10 S 11.1
Ieri h: 20:50 sereno Sereno 29 17 48 1012 10 S/SO 14.8
Ieri h: 20:20 molto_nuvoloso Molto Nuvoloso 29 18 51 1012 10 S/SO 13
Ieri h: 19:50 sereno Sereno 31 17 43 1012 10 S 14.8
Ieri h: 19:20 molto_nuvoloso Molto Nuvoloso 32 16 38 1012 10 S 13
Ieri h: 18:50 sereno Sereno 33 15 33 1012 10 N 3.7
Ieri h: 18:20 sereno Sereno 34 8 20 1012 10 N 7.4
Ieri h: 17:50 sereno Sereno 34 9 21 1013 10 NO 14.8
Ieri h: 17:20 sereno Sereno 35 9 20 1013 10 O/NO 18.5
Ieri h: 16:50 sereno Sereno 35 11 23 1013 10 O 24
Ieri h: 16:20 sereno Sereno 34 13 28 1013 10 NO 14.8
Ieri h: 15:50 sereno Sereno 34 14 30 1013 10 O 14.8
Ieri h: 15:20 molto_nuvoloso Molto Nuvoloso 33 15 33 1013 10 N/NO 13
Ieri h: 14:50 molto_nuvoloso Molto Nuvoloso 32 15 35 1014 10 N/NO 13
Ieri h: 14:20 molto_nuvoloso Molto Nuvoloso 32 15 35 1014 10 N/NO 13
Ieri h: 13:50 sereno Sereno 31 16 40 1015 10 N 11.1
Ieri h: 13:20 sereno Sereno 30 15 40 1015 10 E 11.1
Ieri h: 12:50 sereno Sereno 30 15 40 1015 10 N 5.5
Ieri h: 12:20 sereno Sereno 29 14 39 1016 10 N 5.5
Ieri h: 11:50 sereno Sereno 28 14 42 1016 10 N/NE 9.3
Ieri h: 11:20 sereno Sereno 28 14 42 1016 10 N/NE 9.3
Ieri h: 10:50 molto_nuvoloso Molto Nuvoloso 27 13 42 1016 10 N 3.7
Ieri h: 10:20 molto_nuvoloso Molto Nuvoloso 26 15 50 1016 10 N 5.5
Ieri h: 09:50 molto_nuvoloso Molto Nuvoloso 25 15 53 1016 10 N 5.5
Ieri h: 09:20 poco_nuvoloso Poco Nuvoloso 24 15 57 1016 10 N 5.5
Ieri h: 08:50 poco_nuvoloso Poco Nuvoloso 23 15 60 1016 10 N 5.5
Ieri h: 08:20 poco_nuvoloso Poco Nuvoloso 22 15 64 1016 10 N 5.5
Ieri h: 07:50 poco_nuvoloso Poco Nuvoloso 21 15 68 1016 10 N 5.5
Ieri h: 07:20 poco_nuvoloso Poco Nuvoloso 21 14 64 1016 10 N 5.5
Ieri h: 06:50 sereno Sereno 20 14 68 1016 10 N 5.5
Ieri h: 06:20 sereno Sereno 19 14 72 1016 10 N/NE 7.4
Ieri h: 05:50 sereno Sereno 18 14 77 1016 10 N 3.7